sensor_id;sensor_type;location;lat;lon;timestamp;P1;durP1;ratioP1;P2;durP2;ratioP2
840;SDS011;406;48.566;13.450;2023-04-06T00:00:49;4.63;;;3.53;;
840;SDS011;406;48.566;13.450;2023-04-06T00:03:17;6.60;;;4.17;;
840;SDS011;406;48.566;13.450;2023-04-06T00:05:44;6.33;;;3.40;;
840;SDS011;406;48.566;13.450;2023-04-06T00:08:10;6.20;;;4.50;;
840;SDS011;406;48.566;13.450;2023-04-06T00:10:37;6.23;;;3.93;;
840;SDS011;406;48.566;13.450;2023-04-06T00:13:05;5.70;;;3.67;;
840;SDS011;406;48.566;13.450;2023-04-06T00:15:31;3.90;;;3.40;;
840;SDS011;406;48.566;13.450;2023-04-06T00:17:58;5.20;;;3.33;;
840;SDS011;406;48.566;13.450;2023-04-06T00:20:25;5.63;;;3.33;;
840;SDS011;406;48.566;13.450;2023-04-06T00:22:51;5.13;;;3.43;;
840;SDS011;406;48.566;13.450;2023-04-06T00:25:18;4.43;;;3.77;;
840;SDS011;406;48.566;13.450;2023-04-06T00:27:44;4.80;;;4.20;;
840;SDS011;406;48.566;13.450;2023-04-06T00:30:11;4.77;;;4.10;;
840;SDS011;406;48.566;13.450;2023-04-06T00:32:37;5.20;;;4.17;;
840;SDS011;406;48.566;13.450;2023-04-06T00:35:04;8.27;;;4.00;;
840;SDS011;406;48.566;13.450;2023-04-06T00:37:31;4.03;;;3.60;;
840;SDS011;406;48.566;13.450;2023-04-06T00:39:58;5.07;;;3.97;;
840;SDS011;406;48.566;13.450;2023-04-06T00:42:26;7.80;;;4.30;;
840;SDS011;406;48.566;13.450;2023-04-06T00:44:53;5.65;;;3.90;;
840;SDS011;406;48.566;13.450;2023-04-06T00:47:21;4.00;;;3.33;;
840;SDS011;406;48.566;13.450;2023-04-06T00:49:48;4.90;;;4.20;;
840;SDS011;406;48.566;13.450;2023-04-06T00:52:15;8.40;;;4.23;;
840;SDS011;406;48.566;13.450;2023-04-06T00:54:44;4.50;;;3.80;;
840;SDS011;406;48.566;13.450;2023-04-06T00:57:12;5.35;;;3.72;;
840;SDS011;406;48.566;13.450;2023-04-06T00:59:40;5.57;;;3.70;;
840;SDS011;406;48.566;13.450;2023-04-06T01:02:09;6.63;;;4.00;;
840;SDS011;406;48.566;13.450;2023-04-06T01:04:44;5.25;;;4.75;;
840;SDS011;406;48.566;13.450;2023-04-06T01:07:20;6.20;;;4.40;;
840;SDS011;406;48.566;13.450;2023-04-06T01:10:01;6.87;;;4.70;;
840;SDS011;406;48.566;13.450;2023-04-06T01:12:30;8.95;;;4.55;;
840;SDS011;406;48.566;13.450;2023-04-06T01:14:59;7.43;;;4.78;;
840;SDS011;406;48.566;13.450;2023-04-06T01:17:28;4.73;;;4.20;;
840;SDS011;406;48.566;13.450;2023-04-06T01:20:01;9.80;;;4.85;;
840;SDS011;406;48.566;13.450;2023-04-06T01:22:30;5.85;;;4.88;;
840;SDS011;406;48.566;13.450;2023-04-06T01:25:00;5.45;;;4.15;;
840;SDS011;406;48.566;13.450;2023-04-06T01:28:02;7.07;;;4.97;;
840;SDS011;406;48.566;13.450;2023-04-06T01:30:49;5.45;;;4.55;;
840;SDS011;406;48.566;13.450;2023-04-06T01:33:34;7.57;;;4.45;;
840;SDS011;406;48.566;13.450;2023-04-06T01:36:05;5.25;;;4.55;;
840;SDS011;406;48.566;13.450;2023-04-06T01:38:32;6.25;;;4.43;;
840;SDS011;406;48.566;13.450;2023-04-06T01:40:59;8.65;;;5.00;;
840;SDS011;406;48.566;13.450;2023-04-06T01:43:30;11.07;;;4.75;;
840;SDS011;406;48.566;13.450;2023-04-06T01:46:04;6.30;;;4.45;;
840;SDS011;406;48.566;13.450;2023-04-06T01:48:34;4.75;;;3.97;;
840;SDS011;406;48.566;13.450;2023-04-06T01:51:09;7.07;;;4.70;;
840;SDS011;406;48.566;13.450;2023-04-06T01:53:44;4.45;;;3.88;;
840;SDS011;406;48.566;13.450;2023-04-06T01:56:11;6.47;;;4.53;;
840;SDS011;406;48.566;13.450;2023-04-06T01:58:44;6.28;;;4.63;;
840;SDS011;406;48.566;13.450;2023-04-06T02:01:13;5.88;;;4.00;;
840;SDS011;406;48.566;13.450;2023-04-06T02:03:49;5.22;;;3.65;;
840;SDS011;406;48.566;13.450;2023-04-06T02:06:17;8.18;;;3.88;;
840;SDS011;406;48.566;13.450;2023-04-06T02:08:43;5.20;;;4.10;;
840;SDS011;406;48.566;13.450;2023-04-06T02:11:10;5.15;;;4.15;;
840;SDS011;406;48.566;13.450;2023-04-06T02:13:42;5.13;;;3.90;;
840;SDS011;406;48.566;13.450;2023-04-06T02:16:10;5.40;;;4.38;;
840;SDS011;406;48.566;13.450;2023-04-06T02:18:36;6.72;;;4.53;;
840;SDS011;406;48.566;13.450;2023-04-06T02:21:03;4.50;;;3.38;;
840;SDS011;406;48.566;13.450;2023-04-06T02:23:29;5.88;;;4.00;;
840;SDS011;406;48.566;13.450;2023-04-06T02:25:56;5.40;;;4.35;;
840;SDS011;406;48.566;13.450;2023-04-06T02:28:22;4.97;;;4.38;;
840;SDS011;406;48.566;13.450;2023-04-06T02:30:49;5.97;;;4.70;;
840;SDS011;406;48.566;13.450;2023-04-06T02:33:16;6.43;;;5.57;;
840;SDS011;406;48.566;13.450;2023-04-06T02:35:45;7.30;;;4.85;;
840;SDS011;406;48.566;13.450;2023-04-06T02:38:12;10.07;;;4.50;;
840;SDS011;406;48.566;13.450;2023-04-06T02:40:38;6.30;;;4.50;;
840;SDS011;406;48.566;13.450;2023-04-06T02:43:17;8.20;;;5.68;;
840;SDS011;406;48.566;13.450;2023-04-06T02:45:44;12.90;;;7.05;;
840;SDS011;406;48.566;13.450;2023-04-06T02:48:11;16.10;;;7.55;;
840;SDS011;406;48.566;13.450;2023-04-06T02:50:38;10.43;;;6.50;;
840;SDS011;406;48.566;13.450;2023-04-06T02:53:06;16.15;;;6.65;;
840;SDS011;406;48.566;13.450;2023-04-06T02:55:34;12.02;;;8.27;;
840;SDS011;406;48.566;13.450;2023-04-06T02:58:01;18.73;;;8.45;;
840;SDS011;406;48.566;13.450;2023-04-06T03:00:35;10.07;;;7.20;;
840;SDS011;406;48.566;13.450;2023-04-06T03:03:02;15.98;;;7.70;;
840;SDS011;406;48.566;13.450;2023-04-06T03:05:28;8.43;;;7.30;;
840;SDS011;406;48.566;13.450;2023-04-06T03:07:55;10.07;;;6.57;;
840;SDS011;406;48.566;13.450;2023-04-06T03:10:32;14.75;;;7.55;;
840;SDS011;406;48.566;13.450;2023-04-06T03:12:58;10.02;;;8.20;;
840;SDS011;406;48.566;13.450;2023-04-06T03:15:44;9.18;;;6.85;;
840;SDS011;406;48.566;13.450;2023-04-06T03:18:20;12.60;;;7.32;;
840;SDS011;406;48.566;13.450;2023-04-06T03:20:48;13.73;;;7.47;;
840;SDS011;406;48.566;13.450;2023-04-06T03:23:17;9.88;;;6.68;;
840;SDS011;406;48.566;13.450;2023-04-06T03:25:44;11.10;;;7.13;;
840;SDS011;406;48.566;13.450;2023-04-06T03:28:15;8.77;;;6.85;;
840;SDS011;406;48.566;13.450;2023-04-06T03:31:02;13.98;;;6.95;;
840;SDS011;406;48.566;13.450;2023-04-06T03:33:54;7.47;;;6.30;;
840;SDS011;406;48.566;13.450;2023-04-06T03:36:28;13.20;;;7.13;;
840;SDS011;406;48.566;13.450;2023-04-06T03:38:56;6.55;;;5.45;;
840;SDS011;406;48.566;13.450;2023-04-06T03:41:22;6.82;;;5.20;;
840;SDS011;406;48.566;13.450;2023-04-06T03:43:56;7.45;;;6.00;;
840;SDS011;406;48.566;13.450;2023-04-06T03:46:22;7.35;;;5.78;;
840;SDS011;406;48.566;13.450;2023-04-06T03:48:52;10.10;;;6.32;;
840;SDS011;406;48.566;13.450;2023-04-06T03:51:21;7.50;;;5.30;;
840;SDS011;406;48.566;13.450;2023-04-06T03:53:47;7.85;;;5.75;;
840;SDS011;406;48.566;13.450;2023-04-06T03:56:14;7.95;;;5.75;;
840;SDS011;406;48.566;13.450;2023-04-06T03:58:40;11.32;;;7.07;;
840;SDS011;406;48.566;13.450;2023-04-06T04:01:07;7.18;;;6.15;;
840;SDS011;406;48.566;13.450;2023-04-06T04:03:34;6.82;;;6.13;;
840;SDS011;406;48.566;13.450;2023-04-06T04:06:00;9.60;;;6.75;;
840;SDS011;406;48.566;13.450;2023-04-06T04:08:27;11.43;;;7.50;;
840;SDS011;406;48.566;13.450;2023-04-06T04:10:53;10.20;;;6.82;;
840;SDS011;406;48.566;13.450;2023-04-06T04:13:20;8.18;;;6.68;;
840;SDS011;406;48.566;13.450;2023-04-06T04:15:49;8.55;;;6.78;;
840;SDS011;406;48.566;13.450;2023-04-06T04:18:16;11.75;;;7.93;;
840;SDS011;406;48.566;13.450;2023-04-06T04:20:42;9.05;;;6.30;;
840;SDS011;406;48.566;13.450;2023-04-06T04:23:10;7.75;;;6.95;;
840;SDS011;406;48.566;13.450;2023-04-06T04:25:37;7.60;;;6.60;;
840;SDS011;406;48.566;13.450;2023-04-06T04:28:04;9.50;;;7.25;;
840;SDS011;406;48.566;13.450;2023-04-06T04:30:31;9.52;;;6.28;;
840;SDS011;406;48.566;13.450;2023-04-06T04:32:57;9.48;;;6.45;;
840;SDS011;406;48.566;13.450;2023-04-06T04:35:24;8.80;;;6.93;;
840;SDS011;406;48.566;13.450;2023-04-06T04:37:51;9.07;;;6.55;;
840;SDS011;406;48.566;13.450;2023-04-06T04:40:18;7.72;;;7.03;;
840;SDS011;406;48.566;13.450;2023-04-06T04:42:50;6.93;;;5.75;;
840;SDS011;406;48.566;13.450;2023-04-06T04:45:28;9.32;;;6.40;;
840;SDS011;406;48.566;13.450;2023-04-06T04:47:57;10.00;;;6.90;;
840;SDS011;406;48.566;13.450;2023-04-06T04:50:29;9.65;;;7.15;;
840;SDS011;406;48.566;13.450;2023-04-06T04:52:57;8.20;;;7.10;;
840;SDS011;406;48.566;13.450;2023-04-06T04:55:25;9.55;;;7.65;;
840;SDS011;406;48.566;13.450;2023-04-06T04:57:55;11.40;;;7.95;;
840;SDS011;406;48.566;13.450;2023-04-06T05:00:30;9.43;;;7.93;;
840;SDS011;406;48.566;13.450;2023-04-06T05:02:59;9.07;;;7.20;;
840;SDS011;406;48.566;13.450;2023-04-06T05:05:28;8.77;;;7.85;;
840;SDS011;406;48.566;13.450;2023-04-06T05:07:55;9.23;;;8.20;;
840;SDS011;406;48.566;13.450;2023-04-06T05:10:43;14.52;;;9.65;;
840;SDS011;406;48.566;13.450;2023-04-06T05:13:14;11.82;;;9.43;;
840;SDS011;406;48.566;13.450;2023-04-06T05:15:43;13.43;;;9.98;;
840;SDS011;406;48.566;13.450;2023-04-06T05:18:19;10.43;;;9.15;;
840;SDS011;406;48.566;13.450;2023-04-06T05:20:47;12.73;;;10.23;;
840;SDS011;406;48.566;13.450;2023-04-06T05:23:14;16.35;;;10.63;;
840;SDS011;406;48.566;13.450;2023-04-06T05:25:42;13.15;;;10.13;;
840;SDS011;406;48.566;13.450;2023-04-06T05:28:16;14.85;;;10.80;;
840;SDS011;406;48.566;13.450;2023-04-06T05:30:44;12.55;;;9.85;;
840;SDS011;406;48.566;13.450;2023-04-06T05:33:12;16.48;;;9.60;;
840;SDS011;406;48.566;13.450;2023-04-06T05:35:58;13.52;;;10.32;;
840;SDS011;406;48.566;13.450;2023-04-06T05:38:27;11.55;;;9.13;;
840;SDS011;406;48.566;13.450;2023-04-06T05:40:57;12.73;;;8.88;;
840;SDS011;406;48.566;13.450;2023-04-06T05:43:26;10.73;;;7.93;;
840;SDS011;406;48.566;13.450;2023-04-06T05:45:56;11.85;;;8.50;;
840;SDS011;406;48.566;13.450;2023-04-06T05:48:23;9.70;;;8.20;;
840;SDS011;406;48.566;13.450;2023-04-06T05:50:49;12.93;;;8.40;;
840;SDS011;406;48.566;13.450;2023-04-06T05:53:25;12.93;;;8.98;;
840;SDS011;406;48.566;13.450;2023-04-06T05:55:55;9.77;;;7.60;;
840;SDS011;406;48.566;13.450;2023-04-06T05:58:22;9.48;;;8.20;;
840;SDS011;406;48.566;13.450;2023-04-06T06:00:56;11.63;;;8.18;;
840;SDS011;406;48.566;13.450;2023-04-06T06:03:34;8.80;;;7.85;;
840;SDS011;406;48.566;13.450;2023-04-06T06:06:00;11.95;;;9.02;;
840;SDS011;406;48.566;13.450;2023-04-06T06:08:39;10.73;;;8.43;;
840;SDS011;406;48.566;13.450;2023-04-06T06:11:11;10.15;;;8.73;;
840;SDS011;406;48.566;13.450;2023-04-06T06:13:38;11.25;;;8.32;;
840;SDS011;406;48.566;13.450;2023-04-06T06:16:05;10.30;;;9.18;;
840;SDS011;406;48.566;13.450;2023-04-06T06:18:35;9.48;;;8.40;;
840;SDS011;406;48.566;13.450;2023-04-06T06:21:03;8.70;;;7.78;;
840;SDS011;406;48.566;13.450;2023-04-06T06:23:30;10.50;;;8.25;;
840;SDS011;406;48.566;13.450;2023-04-06T06:25:57;16.63;;;9.02;;
840;SDS011;406;48.566;13.450;2023-04-06T06:28:25;12.70;;;8.45;;
840;SDS011;406;48.566;13.450;2023-04-06T06:30:52;9.60;;;7.85;;
840;SDS011;406;48.566;13.450;2023-04-06T06:33:22;10.30;;;7.97;;
840;SDS011;406;48.566;13.450;2023-04-06T06:35:51;11.75;;;9.38;;
840;SDS011;406;48.566;13.450;2023-04-06T06:38:18;12.13;;;8.57;;
840;SDS011;406;48.566;13.450;2023-04-06T06:40:48;16.10;;;8.02;;
840;SDS011;406;48.566;13.450;2023-04-06T06:43:15;10.40;;;8.00;;
840;SDS011;406;48.566;13.450;2023-04-06T06:45:49;9.45;;;6.68;;
840;SDS011;406;48.566;13.450;2023-04-06T06:48:16;10.20;;;6.97;;
840;SDS011;406;48.566;13.450;2023-04-06T06:50:43;7.65;;;6.85;;
840;SDS011;406;48.566;13.450;2023-04-06T06:53:11;8.00;;;7.20;;
840;SDS011;406;48.566;13.450;2023-04-06T06:55:37;9.32;;;7.50;;
840;SDS011;406;48.566;13.450;2023-04-06T06:58:04;10.02;;;7.35;;
840;SDS011;406;48.566;13.450;2023-04-06T07:00:32;8.80;;;6.93;;
840;SDS011;406;48.566;13.450;2023-04-06T07:02:58;8.70;;;6.30;;
840;SDS011;406;48.566;13.450;2023-04-06T07:05:26;8.17;;;6.40;;
840;SDS011;406;48.566;13.450;2023-04-06T07:07:56;7.90;;;6.47;;
840;SDS011;406;48.566;13.450;2023-04-06T07:10:24;9.37;;;6.70;;
840;SDS011;406;48.566;13.450;2023-04-06T07:12:51;9.57;;;6.87;;
840;SDS011;406;48.566;13.450;2023-04-06T07:15:17;10.23;;;6.95;;
840;SDS011;406;48.566;13.450;2023-04-06T07:17:44;8.10;;;6.87;;
840;SDS011;406;48.566;13.450;2023-04-06T07:20:11;5.97;;;5.20;;
840;SDS011;406;48.566;13.450;2023-04-06T07:22:40;8.70;;;7.90;;
840;SDS011;406;48.566;13.450;2023-04-06T07:25:07;7.40;;;6.10;;
840;SDS011;406;48.566;13.450;2023-04-06T07:27:34;6.65;;;5.95;;
840;SDS011;406;48.566;13.450;2023-04-06T07:30:01;5.93;;;5.30;;
840;SDS011;406;48.566;13.450;2023-04-06T07:32:28;8.47;;;5.80;;
840;SDS011;406;48.566;13.450;2023-04-06T07:34:55;9.50;;;5.77;;
840;SDS011;406;48.566;13.450;2023-04-06T07:37:22;6.73;;;6.03;;
840;SDS011;406;48.566;13.450;2023-04-06T07:39:48;5.70;;;4.97;;
840;SDS011;406;48.566;13.450;2023-04-06T07:42:17;7.17;;;5.50;;
840;SDS011;406;48.566;13.450;2023-04-06T07:44:44;6.27;;;5.07;;
840;SDS011;406;48.566;13.450;2023-04-06T07:47:11;6.00;;;5.40;;
840;SDS011;406;48.566;13.450;2023-04-06T07:49:37;7.40;;;5.60;;
840;SDS011;406;48.566;13.450;2023-04-06T07:52:04;10.97;;;5.23;;
840;SDS011;406;48.566;13.450;2023-04-06T07:54:32;5.10;;;4.33;;
840;SDS011;406;48.566;13.450;2023-04-06T07:56:58;7.53;;;4.90;;
840;SDS011;406;48.566;13.450;2023-04-06T07:59:25;5.10;;;4.33;;
840;SDS011;406;48.566;13.450;2023-04-06T08:01:52;5.23;;;4.00;;
840;SDS011;406;48.566;13.450;2023-04-06T08:04:18;7.37;;;4.80;;
840;SDS011;406;48.566;13.450;2023-04-06T08:06:44;6.60;;;5.73;;
840;SDS011;406;48.566;13.450;2023-04-06T08:09:11;6.10;;;5.27;;
840;SDS011;406;48.566;13.450;2023-04-06T08:11:37;7.93;;;4.90;;
840;SDS011;406;48.566;13.450;2023-04-06T08:14:04;5.60;;;5.00;;
840;SDS011;406;48.566;13.450;2023-04-06T08:16:30;7.00;;;4.73;;
840;SDS011;406;48.566;13.450;2023-04-06T08:18:57;6.97;;;4.47;;
840;SDS011;406;48.566;13.450;2023-04-06T08:21:23;6.77;;;4.20;;
840;SDS011;406;48.566;13.450;2023-04-06T08:23:50;5.67;;;4.50;;
840;SDS011;406;48.566;13.450;2023-04-06T08:26:17;8.80;;;4.97;;
840;SDS011;406;48.566;13.450;2023-04-06T08:28:43;5.60;;;4.37;;
840;SDS011;406;48.566;13.450;2023-04-06T08:31:12;6.13;;;4.23;;
840;SDS011;406;48.566;13.450;2023-04-06T08:33:39;4.87;;;3.90;;
840;SDS011;406;48.566;13.450;2023-04-06T08:36:06;5.97;;;4.23;;
840;SDS011;406;48.566;13.450;2023-04-06T08:38:34;7.53;;;4.50;;
840;SDS011;406;48.566;13.450;2023-04-06T08:41:06;5.77;;;4.33;;
840;SDS011;406;48.566;13.450;2023-04-06T08:43:33;7.00;;;4.40;;
840;SDS011;406;48.566;13.450;2023-04-06T08:46:02;6.13;;;4.93;;
840;SDS011;406;48.566;13.450;2023-04-06T08:48:29;6.10;;;4.50;;
840;SDS011;406;48.566;13.450;2023-04-06T08:50:56;8.40;;;4.50;;
840;SDS011;406;48.566;13.450;2023-04-06T08:53:22;5.77;;;4.47;;
840;SDS011;406;48.566;13.450;2023-04-06T08:55:49;6.80;;;4.93;;
840;SDS011;406;48.566;13.450;2023-04-06T08:58:17;6.50;;;4.27;;
840;SDS011;406;48.566;13.450;2023-04-06T09:01:05;6.13;;;3.70;;
840;SDS011;406;48.566;13.450;2023-04-06T09:03:37;5.77;;;3.70;;
840;SDS011;406;48.566;13.450;2023-04-06T09:06:06;5.33;;;4.53;;
840;SDS011;406;48.566;13.450;2023-04-06T09:08:35;5.57;;;4.93;;
840;SDS011;406;48.566;13.450;2023-04-06T09:11:02;5.13;;;4.63;;
840;SDS011;406;48.566;13.450;2023-04-06T09:13:30;6.50;;;4.90;;
840;SDS011;406;48.566;13.450;2023-04-06T09:16:03;5.73;;;4.67;;
840;SDS011;406;48.566;13.450;2023-04-06T09:18:32;5.73;;;4.40;;
840;SDS011;406;48.566;13.450;2023-04-06T09:21:00;6.87;;;4.87;;
840;SDS011;406;48.566;13.450;2023-04-06T09:23:27;8.60;;;4.80;;
840;SDS011;406;48.566;13.450;2023-04-06T09:26:09;6.30;;;5.50;;
840;SDS011;406;48.566;13.450;2023-04-06T09:28:53;6.60;;;5.90;;
840;SDS011;406;48.566;13.450;2023-04-06T09:33:51;6.57;;;5.13;;
840;SDS011;406;48.566;13.450;2023-04-06T09:36:18;6.43;;;4.50;;
840;SDS011;406;48.566;13.450;2023-04-06T09:44:13;7.43;;;5.67;;
840;SDS011;406;48.566;13.450;2023-04-06T09:46:42;5.03;;;4.53;;
840;SDS011;406;48.566;13.450;2023-04-06T09:49:28;7.23;;;5.47;;
840;SDS011;406;48.566;13.450;2023-04-06T09:51:59;4.77;;;4.27;;
840;SDS011;406;48.566;13.450;2023-04-06T09:54:31;6.60;;;5.60;;
840;SDS011;406;48.566;13.450;2023-04-06T09:57:01;7.50;;;5.73;;
840;SDS011;406;48.566;13.450;2023-04-06T09:59:50;4.40;;;4.00;;
840;SDS011;406;48.566;13.450;2023-04-06T10:05:21;7.43;;;6.17;;
840;SDS011;406;48.566;13.450;2023-04-06T10:07:50;5.97;;;5.40;;
840;SDS011;406;48.566;13.450;2023-04-06T10:10:26;6.83;;;5.47;;
840;SDS011;406;48.566;13.450;2023-04-06T10:12:53;5.70;;;5.20;;
840;SDS011;406;48.566;13.450;2023-04-06T10:15:21;5.90;;;5.40;;
840;SDS011;406;48.566;13.450;2023-04-06T10:17:48;7.73;;;6.13;;
840;SDS011;406;48.566;13.450;2023-04-06T10:20:21;5.80;;;5.30;;
840;SDS011;406;48.566;13.450;2023-04-06T10:23:01;5.43;;;4.43;;
840;SDS011;406;48.566;13.450;2023-04-06T10:25:32;6.50;;;4.83;;
840;SDS011;406;48.566;13.450;2023-04-06T10:28:00;7.07;;;5.50;;
840;SDS011;406;48.566;13.450;2023-04-06T10:30:28;6.90;;;5.10;;
840;SDS011;406;48.566;13.450;2023-04-06T10:32:54;5.77;;;5.27;;
840;SDS011;406;48.566;13.450;2023-04-06T10:35:21;5.97;;;5.37;;
840;SDS011;406;48.566;13.450;2023-04-06T10:37:52;7.03;;;4.70;;
840;SDS011;406;48.566;13.450;2023-04-06T10:40:20;7.07;;;5.80;;
840;SDS011;406;48.566;13.450;2023-04-06T10:42:52;10.23;;;6.63;;
840;SDS011;406;48.566;13.450;2023-04-06T10:45:20;6.30;;;5.70;;
840;SDS011;406;48.566;13.450;2023-04-06T10:47:49;11.70;;;6.77;;
840;SDS011;406;48.566;13.450;2023-04-06T10:50:16;5.57;;;5.03;;
840;SDS011;406;48.566;13.450;2023-04-06T10:52:46;5.93;;;5.30;;
840;SDS011;406;48.566;13.450;2023-04-06T10:55:13;6.07;;;5.53;;
840;SDS011;406;48.566;13.450;2023-04-06T10:57:41;6.50;;;5.80;;
840;SDS011;406;48.566;13.450;2023-04-06T11:00:07;5.97;;;5.20;;
840;SDS011;406;48.566;13.450;2023-04-06T11:02:37;6.93;;;6.20;;
840;SDS011;406;48.566;13.450;2023-04-06T11:05:04;6.57;;;5.87;;
840;SDS011;406;48.566;13.450;2023-04-06T11:07:32;7.07;;;6.00;;
840;SDS011;406;48.566;13.450;2023-04-06T11:09:59;5.20;;;4.77;;
840;SDS011;406;48.566;13.450;2023-04-06T11:12:42;7.77;;;4.70;;
840;SDS011;406;48.566;13.450;2023-04-06T11:15:08;6.57;;;5.73;;
840;SDS011;406;48.566;13.450;2023-04-06T11:17:36;6.77;;;4.50;;
840;SDS011;406;48.566;13.450;2023-04-06T11:20:03;6.87;;;5.10;;
840;SDS011;406;48.566;13.450;2023-04-06T11:22:31;4.83;;;4.17;;
840;SDS011;406;48.566;13.450;2023-04-06T11:25:07;5.97;;;5.33;;
840;SDS011;406;48.566;13.450;2023-04-06T11:27:38;5.83;;;5.23;;
840;SDS011;406;48.566;13.450;2023-04-06T11:30:06;7.60;;;5.20;;
840;SDS011;406;48.566;13.450;2023-04-06T11:32:45;5.27;;;4.87;;
840;SDS011;406;48.566;13.450;2023-04-06T11:35:21;7.83;;;5.30;;
840;SDS011;406;48.566;13.450;2023-04-06T11:37:49;6.70;;;5.30;;
840;SDS011;406;48.566;13.450;2023-04-06T11:40:25;5.57;;;5.03;;
840;SDS011;406;48.566;13.450;2023-04-06T11:42:54;5.77;;;5.17;;
840;SDS011;406;48.566;13.450;2023-04-06T11:45:22;8.33;;;5.33;;
840;SDS011;406;48.566;13.450;2023-04-06T11:47:58;5.83;;;4.53;;
840;SDS011;406;48.566;13.450;2023-04-06T11:50:31;5.27;;;4.77;;
840;SDS011;406;48.566;13.450;2023-04-06T11:52:59;5.30;;;4.27;;
840;SDS011;406;48.566;13.450;2023-04-06T11:55:27;6.37;;;4.50;;
840;SDS011;406;48.566;13.450;2023-04-06T11:57:53;5.57;;;5.03;;
840;SDS011;406;48.566;13.450;2023-04-06T12:00:20;6.43;;;4.10;;
840;SDS011;406;48.566;13.450;2023-04-06T12:02:47;4.70;;;4.30;;
840;SDS011;406;48.566;13.450;2023-04-06T12:05:15;5.13;;;4.40;;
840;SDS011;406;48.566;13.450;2023-04-06T12:07:41;5.47;;;4.97;;
840;SDS011;406;48.566;13.450;2023-04-06T12:10:08;5.90;;;4.43;;
840;SDS011;406;48.566;13.450;2023-04-06T12:12:35;6.57;;;4.67;;
840;SDS011;406;48.566;13.450;2023-04-06T12:15:02;5.53;;;4.90;;
840;SDS011;406;48.566;13.450;2023-04-06T12:17:29;8.23;;;4.50;;
840;SDS011;406;48.566;13.450;2023-04-06T12:19:55;4.17;;;3.77;;
840;SDS011;406;48.566;13.450;2023-04-06T12:22:30;6.27;;;5.23;;
840;SDS011;406;48.566;13.450;2023-04-06T12:24:56;5.47;;;4.07;;
840;SDS011;406;48.566;13.450;2023-04-06T12:27:23;4.73;;;4.30;;
840;SDS011;406;48.566;13.450;2023-04-06T12:29:49;5.47;;;4.90;;
840;SDS011;406;48.566;13.450;2023-04-06T12:32:16;4.87;;;3.83;;
840;SDS011;406;48.566;13.450;2023-04-06T12:34:43;4.40;;;3.27;;
840;SDS011;406;48.566;13.450;2023-04-06T12:37:09;3.83;;;3.00;;
840;SDS011;406;48.566;13.450;2023-04-06T12:39:36;4.80;;;3.97;;
840;SDS011;406;48.566;13.450;2023-04-06T12:42:02;4.30;;;3.90;;
840;SDS011;406;48.566;13.450;2023-04-06T12:44:29;4.17;;;3.77;;
840;SDS011;406;48.566;13.450;2023-04-06T12:46:56;6.37;;;4.73;;
840;SDS011;406;48.566;13.450;2023-04-06T12:49:22;5.13;;;3.40;;
840;SDS011;406;48.566;13.450;2023-04-06T12:51:49;4.83;;;3.70;;
840;SDS011;406;48.566;13.450;2023-04-06T12:54:16;7.03;;;4.50;;
840;SDS011;406;48.566;13.450;2023-04-06T12:56:42;6.20;;;4.03;;
840;SDS011;406;48.566;13.450;2023-04-06T12:59:09;4.43;;;4.03;;
840;SDS011;406;48.566;13.450;2023-04-06T13:01:36;5.60;;;4.10;;
840;SDS011;406;48.566;13.450;2023-04-06T13:04:03;3.57;;;3.27;;
840;SDS011;406;48.566;13.450;2023-04-06T13:06:29;5.50;;;5.00;;
840;SDS011;406;48.566;13.450;2023-04-06T13:08:56;4.13;;;3.83;;
840;SDS011;406;48.566;13.450;2023-04-06T13:11:22;5.20;;;4.27;;
840;SDS011;406;48.566;13.450;2023-04-06T13:13:53;4.63;;;3.73;;
840;SDS011;406;48.566;13.450;2023-04-06T13:16:20;5.00;;;4.00;;
840;SDS011;406;48.566;13.450;2023-04-06T13:18:47;5.43;;;3.63;;
840;SDS011;406;48.566;13.450;2023-04-06T13:21:14;4.83;;;4.07;;
840;SDS011;406;48.566;13.450;2023-04-06T13:23:42;4.53;;;3.67;;
840;SDS011;406;48.566;13.450;2023-04-06T13:26:09;5.40;;;4.20;;
840;SDS011;406;48.566;13.450;2023-04-06T13:28:36;4.83;;;4.37;;
840;SDS011;406;48.566;13.450;2023-04-06T13:31:04;4.53;;;4.13;;
840;SDS011;406;48.566;13.450;2023-04-06T13:33:31;3.73;;;3.30;;
840;SDS011;406;48.566;13.450;2023-04-06T13:35:57;4.03;;;3.63;;
840;SDS011;406;48.566;13.450;2023-04-06T13:38:24;3.40;;;3.10;;
840;SDS011;406;48.566;13.450;2023-04-06T13:40:51;5.20;;;4.17;;
840;SDS011;406;48.566;13.450;2023-04-06T13:43:18;4.10;;;3.70;;
840;SDS011;406;48.566;13.450;2023-04-06T13:45:50;5.50;;;3.90;;
840;SDS011;406;48.566;13.450;2023-04-06T13:48:17;4.80;;;3.70;;
840;SDS011;406;48.566;13.450;2023-04-06T13:50:44;3.50;;;2.90;;
840;SDS011;406;48.566;13.450;2023-04-06T13:53:12;4.93;;;3.30;;
840;SDS011;406;48.566;13.450;2023-04-06T13:55:38;4.33;;;2.90;;
840;SDS011;406;48.566;13.450;2023-04-06T13:58:05;4.17;;;3.77;;
840;SDS011;406;48.566;13.450;2023-04-06T14:00:31;5.07;;;3.80;;
840;SDS011;406;48.566;13.450;2023-04-06T14:02:58;4.97;;;3.60;;
840;SDS011;406;48.566;13.450;2023-04-06T14:05:25;3.20;;;2.83;;
840;SDS011;406;48.566;13.450;2023-04-06T14:07:53;4.70;;;2.97;;
840;SDS011;406;48.566;13.450;2023-04-06T14:10:20;6.83;;;4.10;;
840;SDS011;406;48.566;13.450;2023-04-06T14:12:49;3.23;;;2.93;;
840;SDS011;406;48.566;13.450;2023-04-06T14:15:16;3.63;;;3.33;;
840;SDS011;406;48.566;13.450;2023-04-06T14:17:43;5.00;;;3.87;;
840;SDS011;406;48.566;13.450;2023-04-06T14:20:10;4.23;;;3.73;;
840;SDS011;406;48.566;13.450;2023-04-06T14:22:41;5.27;;;4.67;;
840;SDS011;406;48.566;13.450;2023-04-06T14:25:09;3.93;;;3.50;;
840;SDS011;406;48.566;13.450;2023-04-06T14:27:37;4.30;;;3.60;;
840;SDS011;406;48.566;13.450;2023-04-06T14:30:04;6.17;;;3.97;;
840;SDS011;406;48.566;13.450;2023-04-06T14:32:32;4.13;;;3.70;;
840;SDS011;406;48.566;13.450;2023-04-06T14:34:58;6.43;;;4.07;;
840;SDS011;406;48.566;13.450;2023-04-06T14:37:25;4.37;;;3.97;;
840;SDS011;406;48.566;13.450;2023-04-06T14:39:52;4.63;;;3.90;;
840;SDS011;406;48.566;13.450;2023-04-06T14:42:18;3.83;;;3.50;;
840;SDS011;406;48.566;13.450;2023-04-06T14:44:45;4.00;;;3.60;;
840;SDS011;406;48.566;13.450;2023-04-06T14:47:12;3.73;;;3.40;;
840;SDS011;406;48.566;13.450;2023-04-06T14:49:41;5.40;;;4.40;;
840;SDS011;406;48.566;13.450;2023-04-06T14:52:08;6.00;;;4.00;;
840;SDS011;406;48.566;13.450;2023-04-06T14:54:34;6.77;;;3.67;;
840;SDS011;406;48.566;13.450;2023-04-06T14:57:01;4.07;;;3.50;;
840;SDS011;406;48.566;13.450;2023-04-06T14:59:28;3.77;;;3.47;;
840;SDS011;406;48.566;13.450;2023-04-06T15:02:01;4.43;;;3.80;;
840;SDS011;406;48.566;13.450;2023-04-06T15:04:29;4.60;;;4.20;;
840;SDS011;406;48.566;13.450;2023-04-06T15:06:56;3.63;;;2.93;;
840;SDS011;406;48.566;13.450;2023-04-06T15:09:23;5.30;;;3.33;;
840;SDS011;406;48.566;13.450;2023-04-06T15:11:49;4.40;;;3.80;;
840;SDS011;406;48.566;13.450;2023-04-06T15:14:16;4.10;;;3.53;;
840;SDS011;406;48.566;13.450;2023-04-06T15:16:42;3.60;;;3.30;;
840;SDS011;406;48.566;13.450;2023-04-06T15:19:09;4.33;;;3.40;;
840;SDS011;406;48.566;13.450;2023-04-06T15:21:36;4.77;;;3.73;;
840;SDS011;406;48.566;13.450;2023-04-06T15:24:03;4.47;;;3.50;;
840;SDS011;406;48.566;13.450;2023-04-06T15:26:32;6.60;;;4.57;;
840;SDS011;406;48.566;13.450;2023-04-06T15:28:59;4.40;;;4.00;;
840;SDS011;406;48.566;13.450;2023-04-06T15:31:27;5.53;;;3.87;;
840;SDS011;406;48.566;13.450;2023-04-06T15:34:03;4.80;;;4.40;;
840;SDS011;406;48.566;13.450;2023-04-06T15:36:30;4.03;;;3.53;;
840;SDS011;406;48.566;13.450;2023-04-06T15:38:57;6.13;;;4.03;;
840;SDS011;406;48.566;13.450;2023-04-06T15:41:24;4.00;;;3.57;;
840;SDS011;406;48.566;13.450;2023-04-06T15:43:52;4.47;;;3.50;;
840;SDS011;406;48.566;13.450;2023-04-06T15:46:19;4.97;;;4.00;;
840;SDS011;406;48.566;13.450;2023-04-06T15:48:46;4.40;;;3.70;;